Flores Da Cunha, Brazil
Current Conditions -  °F | °C
As of 2:00 PM on Saturday 22 Nov 2014 (Local Time) from SBCO Reporting Station
Broken Clouds Broken Clouds  
Wind Chill: 77°   Ceiling: 3000
Heat Index: 79°   Visibility: 6mi
Dew Point: 61°   Wind: 23mph
Humidity: 57%   Direction: 300°WNW
Pressure: 29.83"   Gusts: 36mph
Location:  29.03°S, 51.18°W
Report Text: SBCO 221600Z 30020G31KT 9999 BKN030 25/16 Q1010
Loading
Personal Weather Stations






























Interactive Weather Map New forecast layout! Learn more

10-Day Weather Forecast

Advertisements
Track Severe Weather on mobile